Terminal Aerodrome Forecast
Issued by NWS Wichita, KS

Home | Current Version | Previous Version | Graphics & Text | Print | Product List | Glossary On
Versions: 1 2 3 4 5 6 7 8 9 10 11 12 13 14
000
FTUS43 KICT 260520
TAFICT
TAF
KICT 260520Z 2606/2706 18011KT P6SM BKN100
     FM260900 28009KT P6SM OVC080
     FM261500 32019G28KT P6SM SCT100
     FM270000 36009KT P6SM SKC=

USA.gov is the U.S. government's official web portal to all federal, state and local government web resources and services.